sensor_id;sensor_type;location;lat;lon;timestamp;pressure;altitude;pressure_sealevel;temperature;humidity
50105;BME280;47690;39.202;-77.198;2023-01-31T00:01:50;100353.91;;;38.82;10.14
50105;BME280;47690;39.202;-77.198;2023-01-31T00:04:26;100350.50;;;39.47;9.48
50105;BME280;47690;39.202;-77.198;2023-01-31T00:06:59;100347.41;;;39.37;9.55
50105;BME280;47690;39.202;-77.198;2023-01-31T00:09:31;100363.03;;;38.94;9.80
50105;BME280;47690;39.202;-77.198;2023-01-31T00:12:03;100363.84;;;38.47;10.54
50105;BME280;47690;39.202;-77.198;2023-01-31T00:14:36;100354.72;;;38.28;10.44
50105;BME280;47690;39.202;-77.198;2023-01-31T00:17:08;100366.47;;;38.20;10.22
50105;BME280;47690;39.202;-77.198;2023-01-31T00:19:40;100365.63;;;38.06;10.17
50105;BME280;47690;39.202;-77.198;2023-01-31T00:22:12;100356.28;;;37.95;10.30
50105;BME280;47690;39.202;-77.198;2023-01-31T00:24:42;100362.63;;;37.81;10.30
50105;BME280;47690;39.202;-77.198;2023-01-31T00:27:12;100359.09;;;37.74;10.13
50105;BME280;47690;39.202;-77.198;2023-01-31T00:29:41;100367.97;;;38.36;9.94
50105;BME280;47690;39.202;-77.198;2023-01-31T00:32:11;100360.63;;;37.54;10.20
50105;BME280;47690;39.202;-77.198;2023-01-31T00:34:43;100358.50;;;37.43;10.61
50105;BME280;47690;39.202;-77.198;2023-01-31T00:37:14;100363.97;;;37.28;10.68
50105;BME280;47690;39.202;-77.198;2023-01-31T00:39:45;100358.41;;;37.23;10.77
50105;BME280;47690;39.202;-77.198;2023-01-31T00:42:19;100379.25;;;37.21;10.83
50105;BME280;47690;39.202;-77.198;2023-01-31T00:44:58;100366.81;;;37.20;10.38
50105;BME280;47690;39.202;-77.198;2023-01-31T00:47:32;100373.00;;;37.13;10.66
50105;BME280;47690;39.202;-77.198;2023-01-31T00:50:04;100380.16;;;37.06;10.71
50105;BME280;47690;39.202;-77.198;2023-01-31T00:52:34;100373.91;;;36.99;10.67
50105;BME280;47690;39.202;-77.198;2023-01-31T00:55:06;100369.94;;;36.95;10.57
50105;BME280;47690;39.202;-77.198;2023-01-31T00:57:36;100373.47;;;36.95;10.35
50105;BME280;47690;39.202;-77.198;2023-01-31T01:00:06;100375.72;;;36.92;10.55
50105;BME280;47690;39.202;-77.198;2023-01-31T01:02:39;100389.06;;;36.85;10.88
50105;BME280;47690;39.202;-77.198;2023-01-31T01:05:12;100376.41;;;36.79;10.79
50105;BME280;47690;39.202;-77.198;2023-01-31T01:07:42;100369.78;;;36.74;10.64
50105;BME280;47690;39.202;-77.198;2023-01-31T01:10:14;100373.84;;;36.92;10.56
50105;BME280;47690;39.202;-77.198;2023-01-31T01:12:44;100375.09;;;36.68;10.41
50105;BME280;47690;39.202;-77.198;2023-01-31T01:15:18;100377.91;;;36.59;10.35
50105;BME280;47690;39.202;-77.198;2023-01-31T01:17:51;100378.66;;;36.53;10.40
50105;BME280;47690;39.202;-77.198;2023-01-31T01:20:22;100372.91;;;36.34;10.48
50105;BME280;47690;39.202;-77.198;2023-01-31T01:22:56;100378.97;;;36.21;10.60
50105;BME280;47690;39.202;-77.198;2023-01-31T01:25:42;100381.25;;;36.25;10.64
50105;BME280;47690;39.202;-77.198;2023-01-31T01:28:13;100377.94;;;36.07;10.61
50105;BME280;47690;39.202;-77.198;2023-01-31T01:30:44;100373.94;;;35.81;10.81
50105;BME280;47690;39.202;-77.198;2023-01-31T01:33:15;100380.41;;;35.72;11.19
50105;BME280;47690;39.202;-77.198;2023-01-31T01:35:48;100377.44;;;35.82;11.28
50105;BME280;47690;39.202;-77.198;2023-01-31T01:38:20;100364.91;;;35.82;11.28
50105;BME280;47690;39.202;-77.198;2023-01-31T01:40:51;100355.66;;;35.70;11.28
50105;BME280;47690;39.202;-77.198;2023-01-31T01:43:41;100362.91;;;35.91;11.08
50105;BME280;47690;39.202;-77.198;2023-01-31T01:49:22;100355.72;;;35.92;11.17
50105;BME280;47690;39.202;-77.198;2023-01-31T01:52:02;100360.06;;;35.93;11.13
50105;BME280;47690;39.202;-77.198;2023-01-31T01:55:03;100369.84;;;36.01;11.08
50105;BME280;47690;39.202;-77.198;2023-01-31T01:57:38;100368.03;;;35.86;10.84
50105;BME280;47690;39.202;-77.198;2023-01-31T02:00:26;100357.19;;;35.94;11.25
50105;BME280;47690;39.202;-77.198;2023-01-31T02:03:00;100366.47;;;35.77;11.25
50105;BME280;47690;39.202;-77.198;2023-01-31T02:08:15;100368.25;;;35.70;11.42
50105;BME280;47690;39.202;-77.198;2023-01-31T02:10:54;100361.41;;;35.67;10.92
50105;BME280;47690;39.202;-77.198;2023-01-31T02:13:29;100368.59;;;35.66;10.82
50105;BME280;47690;39.202;-77.198;2023-01-31T02:16:03;100369.59;;;35.50;11.08
50105;BME280;47690;39.202;-77.198;2023-01-31T02:18:33;100359.72;;;35.36;11.00
50105;BME280;47690;39.202;-77.198;2023-01-31T02:33:59;100382.09;;;35.73;11.21
50105;BME280;47690;39.202;-77.198;2023-01-31T02:39:42;100391.44;;;35.62;11.11
50105;BME280;47690;39.202;-77.198;2023-01-31T02:56:49;100357.03;;;35.51;10.98
50105;BME280;47690;39.202;-77.198;2023-01-31T02:59:23;100365.06;;;35.36;11.24
50105;BME280;47690;39.202;-77.198;2023-01-31T03:02:01;100370.25;;;35.37;10.97
50105;BME280;47690;39.202;-77.198;2023-01-31T03:04:32;100373.00;;;35.29;10.82
50105;BME280;47690;39.202;-77.198;2023-01-31T03:07:12;100386.47;;;35.21;10.89
50105;BME280;47690;39.202;-77.198;2023-01-31T03:09:53;100376.22;;;35.09;10.97
50105;BME280;47690;39.202;-77.198;2023-01-31T03:15:40;100399.78;;;35.14;11.05
50105;BME280;47690;39.202;-77.198;2023-01-31T03:21:43;100386.56;;;35.27;11.03
50105;BME280;47690;39.202;-77.198;2023-01-31T03:24:17;100401.22;;;35.17;10.92
50105;BME280;47690;39.202;-77.198;2023-01-31T03:26:53;100396.25;;;35.13;10.91
50105;BME280;47690;39.202;-77.198;2023-01-31T03:29:28;100387.63;;;35.03;11.14
50105;BME280;47690;39.202;-77.198;2023-01-31T03:32:19;100382.47;;;35.01;11.18
50105;BME280;47690;39.202;-77.198;2023-01-31T03:34:53;100383.75;;;35.06;10.88
50105;BME280;47690;39.202;-77.198;2023-01-31T03:37:36;100375.06;;;35.04;11.22
50105;BME280;47690;39.202;-77.198;2023-01-31T03:40:20;100372.63;;;35.17;11.23
50105;BME280;47690;39.202;-77.198;2023-01-31T03:46:11;100372.00;;;35.15;11.12
50105;BME280;47690;39.202;-77.198;2023-01-31T03:48:48;100356.72;;;35.00;11.19
50105;BME280;47690;39.202;-77.198;2023-01-31T03:51:25;100353.13;;;35.08;11.14
50105;BME280;47690;39.202;-77.198;2023-01-31T03:54:08;100355.25;;;35.13;11.21
50105;BME280;47690;39.202;-77.198;2023-01-31T03:57:05;100355.09;;;35.14;11.21
50105;BME280;47690;39.202;-77.198;2023-01-31T03:59:44;100349.59;;;34.93;11.12
50105;BME280;47690;39.202;-77.198;2023-01-31T04:02:16;100350.78;;;34.90;11.00
50105;BME280;47690;39.202;-77.198;2023-01-31T04:05:01;100350.69;;;34.83;11.32
50105;BME280;47690;39.202;-77.198;2023-01-31T04:07:35;100356.31;;;34.89;11.16
50105;BME280;47690;39.202;-77.198;2023-01-31T04:10:14;100347.53;;;34.95;11.33
50105;BME280;47690;39.202;-77.198;2023-01-31T04:12:48;100350.44;;;34.93;11.41
50105;BME280;47690;39.202;-77.198;2023-01-31T04:15:18;100357.25;;;34.96;11.35
50105;BME280;47690;39.202;-77.198;2023-01-31T04:17:48;100357.25;;;34.96;11.17
50105;BME280;47690;39.202;-77.198;2023-01-31T04:20:18;100368.06;;;35.03;10.88
50105;BME280;47690;39.202;-77.198;2023-01-31T04:22:48;100367.66;;;34.91;11.27
50105;BME280;47690;39.202;-77.198;2023-01-31T04:25:18;100364.91;;;34.99;10.98
50105;BME280;47690;39.202;-77.198;2023-01-31T04:27:49;100375.88;;;34.89;11.31
50105;BME280;47690;39.202;-77.198;2023-01-31T04:30:19;100357.78;;;34.91;11.28
50105;BME280;47690;39.202;-77.198;2023-01-31T04:32:48;100343.88;;;34.96;11.27
50105;BME280;47690;39.202;-77.198;2023-01-31T04:35:18;100341.25;;;35.11;11.48
50105;BME280;47690;39.202;-77.198;2023-01-31T04:37:48;100342.25;;;35.25;11.09
50105;BME280;47690;39.202;-77.198;2023-01-31T04:40:17;100340.25;;;35.27;11.01
50105;BME280;47690;39.202;-77.198;2023-01-31T04:42:49;100334.69;;;35.28;11.06
50105;BME280;47690;39.202;-77.198;2023-01-31T04:45:21;100330.09;;;35.22;11.37
50105;BME280;47690;39.202;-77.198;2023-01-31T04:47:53;100327.41;;;35.22;11.16
50105;BME280;47690;39.202;-77.198;2023-01-31T04:50:25;100317.25;;;35.33;11.09
50105;BME280;47690;39.202;-77.198;2023-01-31T04:52:56;100315.31;;;35.26;11.04
50105;BME280;47690;39.202;-77.198;2023-01-31T04:55:26;100306.56;;;35.18;11.00
50105;BME280;47690;39.202;-77.198;2023-01-31T04:58:01;100304.88;;;35.17;10.98
50105;BME280;47690;39.202;-77.198;2023-01-31T05:00:34;100305.16;;;35.22;10.86
50105;BME280;47690;39.202;-77.198;2023-01-31T05:03:07;100294.94;;;35.10;11.04
50105;BME280;47690;39.202;-77.198;2023-01-31T05:05:38;100309.13;;;35.11;11.05
50105;BME280;47690;39.202;-77.198;2023-01-31T05:08:08;100306.63;;;35.09;11.03
50105;BME280;47690;39.202;-77.198;2023-01-31T05:10:38;100304.38;;;34.98;11.15
50105;BME280;47690;39.202;-77.198;2023-01-31T05:13:11;100309.69;;;34.83;11.05
50105;BME280;47690;39.202;-77.198;2023-01-31T05:15:47;100312.84;;;34.86;11.28
50105;BME280;47690;39.202;-77.198;2023-01-31T05:18:17;100314.25;;;34.82;11.02
50105;BME280;47690;39.202;-77.198;2023-01-31T05:20:47;100312.13;;;34.78;11.35
50105;BME280;47690;39.202;-77.198;2023-01-31T05:23:18;100314.41;;;34.81;11.09
50105;BME280;47690;39.202;-77.198;2023-01-31T05:25:49;100308.22;;;34.80;11.30
50105;BME280;47690;39.202;-77.198;2023-01-31T05:28:19;100301.38;;;34.63;11.19
50105;BME280;47690;39.202;-77.198;2023-01-31T05:30:53;100306.34;;;34.66;11.32
50105;BME280;47690;39.202;-77.198;2023-01-31T05:33:31;100291.22;;;34.73;11.06
50105;BME280;47690;39.202;-77.198;2023-01-31T05:36:02;100298.31;;;34.66;11.43
50105;BME280;47690;39.202;-77.198;2023-01-31T05:38:32;100300.28;;;34.72;10.98
50105;BME280;47690;39.202;-77.198;2023-01-31T05:41:03;100304.50;;;34.66;11.24
50105;BME280;47690;39.202;-77.198;2023-01-31T05:43:34;100298.31;;;34.66;11.43
50105;BME280;47690;39.202;-77.198;2023-01-31T05:46:06;100283.28;;;34.65;11.32
50105;BME280;47690;39.202;-77.198;2023-01-31T05:48:34;100289.78;;;34.70;11.54
50105;BME280;47690;39.202;-77.198;2023-01-31T05:51:06;100277.81;;;34.81;11.27
50105;BME280;47690;39.202;-77.198;2023-01-31T05:53:37;100273.19;;;34.90;11.44
50105;BME280;47690;39.202;-77.198;2023-01-31T05:56:06;100277.97;;;34.95;11.02
50105;BME280;47690;39.202;-77.198;2023-01-31T05:58:36;100270.41;;;34.98;11.49
50105;BME280;47690;39.202;-77.198;2023-01-31T06:01:07;100268.19;;;35.02;11.13
50105;BME280;47690;39.202;-77.198;2023-01-31T06:03:37;100225.31;;;34.95;11.17
50105;BME280;47690;39.202;-77.198;2023-01-31T06:06:07;100195.59;;;34.90;11.17
50105;BME280;47690;39.202;-77.198;2023-01-31T06:08:36;100215.16;;;34.91;11.36
50105;BME280;47690;39.202;-77.198;2023-01-31T06:11:07;100208.06;;;34.98;11.52
50105;BME280;47690;39.202;-77.198;2023-01-31T06:13:40;100212.22;;;35.00;11.15
50105;BME280;47690;39.202;-77.198;2023-01-31T06:16:13;100201.03;;;34.97;11.39
50105;BME280;47690;39.202;-77.198;2023-01-31T06:18:42;100200.38;;;34.95;11.28
50105;BME280;47690;39.202;-77.198;2023-01-31T06:21:12;100202.69;;;34.98;11.34
50105;BME280;47690;39.202;-77.198;2023-01-31T06:23:44;100190.81;;;35.00;11.35
50105;BME280;47690;39.202;-77.198;2023-01-31T06:26:16;100188.38;;;35.06;11.27
50105;BME280;47690;39.202;-77.198;2023-01-31T06:28:46;100172.06;;;35.00;11.29
50105;BME280;47690;39.202;-77.198;2023-01-31T06:31:18;100183.03;;;35.06;11.41
50105;BME280;47690;39.202;-77.198;2023-01-31T06:33:46;100176.00;;;35.05;11.47
50105;BME280;47690;39.202;-77.198;2023-01-31T06:36:17;100176.78;;;35.13;11.38
50105;BME280;47690;39.202;-77.198;2023-01-31T06:38:51;100182.56;;;35.02;11.52
50105;BME280;47690;39.202;-77.198;2023-01-31T06:41:21;100187.19;;;36.26;11.19
50105;BME280;47690;39.202;-77.198;2023-01-31T06:43:51;100176.00;;;35.57;11.13
50105;BME280;47690;39.202;-77.198;2023-01-31T06:46:22;100166.25;;;35.27;10.98
50105;BME280;47690;39.202;-77.198;2023-01-31T06:48:51;100183.88;;;35.21;11.37
50105;BME280;47690;39.202;-77.198;2023-01-31T06:51:22;100208.63;;;35.23;11.43
50105;BME280;47690;39.202;-77.198;2023-01-31T06:53:52;100212.50;;;35.21;11.46
50105;BME280;47690;39.202;-77.198;2023-01-31T06:56:29;100207.59;;;35.24;11.44
50105;BME280;47690;39.202;-77.198;2023-01-31T06:59:00;100230.19;;;35.22;11.64
50105;BME280;47690;39.202;-77.198;2023-01-31T07:01:32;100231.22;;;35.21;11.58
50105;BME280;47690;39.202;-77.198;2023-01-31T07:04:02;100214.59;;;35.25;11.43
50105;BME280;47690;39.202;-77.198;2023-01-31T07:06:33;100197.16;;;35.14;11.63
50105;BME280;47690;39.202;-77.198;2023-01-31T07:09:03;100218.75;;;35.13;11.59
50105;BME280;47690;39.202;-77.198;2023-01-31T07:11:35;100212.03;;;35.17;11.47
50105;BME280;47690;39.202;-77.198;2023-01-31T07:14:06;100213.50;;;35.20;11.47
50105;BME280;47690;39.202;-77.198;2023-01-31T07:16:37;100215.34;;;35.19;11.59
50105;BME280;47690;39.202;-77.198;2023-01-31T07:19:08;100223.03;;;35.22;11.69
50105;BME280;47690;39.202;-77.198;2023-01-31T07:21:37;100216.25;;;35.26;11.48
50105;BME280;47690;39.202;-77.198;2023-01-31T07:24:08;100216.53;;;35.32;11.54
50105;BME280;47690;39.202;-77.198;2023-01-31T07:26:38;100217.72;;;35.29;11.51
50105;BME280;47690;39.202;-77.198;2023-01-31T07:29:09;100216.25;;;35.26;11.68
50105;BME280;47690;39.202;-77.198;2023-01-31T07:31:40;100214.16;;;35.22;11.51
50105;BME280;47690;39.202;-77.198;2023-01-31T07:34:10;100217.84;;;35.21;11.48
50105;BME280;47690;39.202;-77.198;2023-01-31T07:36:40;100233.97;;;35.27;11.47
50105;BME280;47690;39.202;-77.198;2023-01-31T07:39:10;100245.97;;;35.32;11.49
50105;BME280;47690;39.202;-77.198;2023-01-31T07:41:41;100255.03;;;35.31;11.71
50105;BME280;47690;39.202;-77.198;2023-01-31T07:44:12;100248.38;;;35.26;11.55
50105;BME280;47690;39.202;-77.198;2023-01-31T07:46:42;100241.38;;;35.25;11.46
50105;BME280;47690;39.202;-77.198;2023-01-31T07:49:13;100263.06;;;35.31;11.63
50105;BME280;47690;39.202;-77.198;2023-01-31T07:51:42;100258.91;;;35.28;11.72
50105;BME280;47690;39.202;-77.198;2023-01-31T07:54:12;100259.72;;;35.44;11.82
50105;BME280;47690;39.202;-77.198;2023-01-31T07:56:43;100267.75;;;35.59;11.50
50105;BME280;47690;39.202;-77.198;2023-01-31T07:59:14;100254.81;;;35.62;11.30
50105;BME280;47690;39.202;-77.198;2023-01-31T08:01:46;100250.47;;;35.61;11.30
50105;BME280;47690;39.202;-77.198;2023-01-31T08:04:35;100244.00;;;35.71;11.25
50105;BME280;47690;39.202;-77.198;2023-01-31T08:07:06;100232.94;;;35.59;11.52
50105;BME280;47690;39.202;-77.198;2023-01-31T08:09:37;100236.63;;;36.45;10.82
50105;BME280;47690;39.202;-77.198;2023-01-31T08:12:07;100235.56;;;36.68;10.45
50105;BME280;47690;39.202;-77.198;2023-01-31T08:14:37;100260.56;;;36.68;10.53
50105;BME280;47690;39.202;-77.198;2023-01-31T08:17:09;100242.25;;;36.79;10.84
50105;BME280;47690;39.202;-77.198;2023-01-31T08:19:38;100241.22;;;36.80;10.69
50105;BME280;47690;39.202;-77.198;2023-01-31T08:22:08;100253.38;;;36.75;10.58
50105;BME280;47690;39.202;-77.198;2023-01-31T08:24:40;100243.69;;;36.74;10.72
50105;BME280;47690;39.202;-77.198;2023-01-31T08:27:10;100253.09;;;36.63;10.59
50105;BME280;47690;39.202;-77.198;2023-01-31T08:29:39;100259.75;;;36.46;10.42
50105;BME280;47690;39.202;-77.198;2023-01-31T08:32:09;100278.28;;;36.41;10.50
50105;BME280;47690;39.202;-77.198;2023-01-31T08:34:39;100273.06;;;36.32;11.02
50105;BME280;47690;39.202;-77.198;2023-01-31T08:37:09;100270.09;;;35.84;10.79
50105;BME280;47690;39.202;-77.198;2023-01-31T08:39:40;100260.31;;;35.09;11.63
50105;BME280;47690;39.202;-77.198;2023-01-31T08:42:10;100270.72;;;34.89;11.76
50105;BME280;47690;39.202;-77.198;2023-01-31T08:44:40;100261.75;;;34.81;11.77
50105;BME280;47690;39.202;-77.198;2023-01-31T08:47:11;100264.94;;;34.77;11.76
50105;BME280;47690;39.202;-77.198;2023-01-31T08:49:42;100269.84;;;34.73;11.93
50105;BME280;47690;39.202;-77.198;2023-01-31T08:52:14;100287.19;;;34.77;11.86
50105;BME280;47690;39.202;-77.198;2023-01-31T08:54:43;100290.53;;;35.54;11.32
50105;BME280;47690;39.202;-77.198;2023-01-31T08:57:14;100300.03;;;35.72;11.55
50105;BME280;47690;39.202;-77.198;2023-01-31T08:59:44;100302.06;;;35.85;11.08
50105;BME280;47690;39.202;-77.198;2023-01-31T09:02:14;100299.41;;;36.07;11.08
50105;BME280;47690;39.202;-77.198;2023-01-31T09:04:44;100317.50;;;36.20;11.09
50105;BME280;47690;39.202;-77.198;2023-01-31T09:07:14;100318.38;;;36.27;11.10
50105;BME280;47690;39.202;-77.198;2023-01-31T09:09:45;100320.81;;;36.44;11.12
50105;BME280;47690;39.202;-77.198;2023-01-31T09:12:14;100316.13;;;36.53;11.35
50105;BME280;47690;39.202;-77.198;2023-01-31T09:14:46;100318.75;;;36.68;11.31
50105;BME280;47690;39.202;-77.198;2023-01-31T09:17:17;100331.84;;;36.77;10.98
50105;BME280;47690;39.202;-77.198;2023-01-31T09:19:48;100346.97;;;36.85;11.04
50105;BME280;47690;39.202;-77.198;2023-01-31T09:22:18;100349.25;;;36.88;11.26
50105;BME280;47690;39.202;-77.198;2023-01-31T09:24:49;100353.66;;;36.96;11.46
50105;BME280;47690;39.202;-77.198;2023-01-31T09:27:21;100348.31;;;37.03;11.11
50105;BME280;47690;39.202;-77.198;2023-01-31T09:29:50;100364.72;;;37.08;10.86
50105;BME280;47690;39.202;-77.198;2023-01-31T09:32:20;100372.59;;;37.16;11.31
50105;BME280;47690;39.202;-77.198;2023-01-31T09:34:50;100357.34;;;37.17;11.35
50105;BME280;47690;39.202;-77.198;2023-01-31T09:37:20;100373.22;;;37.18;11.43
50105;BME280;47690;39.202;-77.198;2023-01-31T09:39:50;100368.88;;;37.17;11.06
50105;BME280;47690;39.202;-77.198;2023-01-31T09:42:36;100373.72;;;37.29;11.44
50105;BME280;47690;39.202;-77.198;2023-01-31T09:45:26;100366.38;;;37.51;11.08
50105;BME280;47690;39.202;-77.198;2023-01-31T09:48:01;100367.78;;;37.40;10.74
50105;BME280;47690;39.202;-77.198;2023-01-31T09:50:44;100375.41;;;37.37;10.86
50105;BME280;47690;39.202;-77.198;2023-01-31T09:53:19;100390.25;;;37.68;10.73
50105;BME280;47690;39.202;-77.198;2023-01-31T09:56:31;100411.69;;;37.96;10.76
50105;BME280;47690;39.202;-77.198;2023-01-31T09:59:21;100403.22;;;37.99;10.76
50105;BME280;47690;39.202;-77.198;2023-01-31T10:10:53;100418.09;;;38.02;10.63
50105;BME280;47690;39.202;-77.198;2023-01-31T10:16:25;100427.25;;;38.08;10.60
50105;BME280;47690;39.202;-77.198;2023-01-31T10:19:09;100420.75;;;37.89;10.74
50105;BME280;47690;39.202;-77.198;2023-01-31T10:21:44;100437.22;;;37.72;10.48
50105;BME280;47690;39.202;-77.198;2023-01-31T10:24:19;100452.31;;;37.73;10.51
50105;BME280;47690;39.202;-77.198;2023-01-31T10:26:55;100475.38;;;37.61;10.74
50105;BME280;47690;39.202;-77.198;2023-01-31T10:29:43;100468.31;;;37.88;10.72
50105;BME280;47690;39.202;-77.198;2023-01-31T10:32:26;100486.44;;;37.72;10.65
50105;BME280;47690;39.202;-77.198;2023-01-31T10:37:42;100482.75;;;37.52;10.68
50105;BME280;47690;39.202;-77.198;2023-01-31T10:40:29;100500.38;;;37.33;10.91
50105;BME280;47690;39.202;-77.198;2023-01-31T10:43:25;100524.25;;;37.49;10.83
50105;BME280;47690;39.202;-77.198;2023-01-31T10:46:01;100515.13;;;37.43;10.64
50105;BME280;47690;39.202;-77.198;2023-01-31T10:48:30;100525.50;;;37.03;10.69
50105;BME280;47690;39.202;-77.198;2023-01-31T10:51:26;100516.56;;;37.17;10.70
50105;BME280;47690;39.202;-77.198;2023-01-31T10:56:37;100524.91;;;36.86;10.87
50105;BME280;47690;39.202;-77.198;2023-01-31T10:59:33;100514.94;;;36.80;10.87
50105;BME280;47690;39.202;-77.198;2023-01-31T11:02:08;100500.44;;;36.96;10.50
50105;BME280;47690;39.202;-77.198;2023-01-31T11:04:42;100521.91;;;36.96;10.38
50105;BME280;47690;39.202;-77.198;2023-01-31T11:07:13;100523.69;;;36.88;10.50
50105;BME280;47690;39.202;-77.198;2023-01-31T11:09:47;100515.31;;;36.76;10.31
50105;BME280;47690;39.202;-77.198;2023-01-31T11:12:20;100520.25;;;36.73;10.88
50105;BME280;47690;39.202;-77.198;2023-01-31T11:15:05;100527.81;;;36.84;10.37
50105;BME280;47690;39.202;-77.198;2023-01-31T11:17:44;100532.00;;;36.72;10.60
50105;BME280;47690;39.202;-77.198;2023-01-31T11:20:22;100554.59;;;36.62;10.52
50105;BME280;47690;39.202;-77.198;2023-01-31T11:22:53;100552.28;;;36.59;10.44
50105;BME280;47690;39.202;-77.198;2023-01-31T11:25:24;100564.66;;;36.60;10.85
50105;BME280;47690;39.202;-77.198;2023-01-31T11:28:02;100582.81;;;36.73;10.59
50105;BME280;47690;39.202;-77.198;2023-01-31T11:30:35;100585.72;;;36.79;10.29
50105;BME280;47690;39.202;-77.198;2023-01-31T11:33:06;100592.22;;;36.84;10.55
50105;BME280;47690;39.202;-77.198;2023-01-31T11:35:36;100586.66;;;36.56;10.43
50105;BME280;47690;39.202;-77.198;2023-01-31T11:40:39;100588.72;;;36.39;10.17
50105;BME280;47690;39.202;-77.198;2023-01-31T11:43:29;100595.31;;;36.66;10.60
50105;BME280;47690;39.202;-77.198;2023-01-31T11:46:00;100605.44;;;36.56;10.67
50105;BME280;47690;39.202;-77.198;2023-01-31T11:48:42;100625.25;;;36.55;10.03
50105;BME280;47690;39.202;-77.198;2023-01-31T11:51:25;100618.97;;;36.47;10.00
50105;BME280;47690;39.202;-77.198;2023-01-31T11:53:56;100634.31;;;36.23;10.13
50105;BME280;47690;39.202;-77.198;2023-01-31T11:56:30;100639.56;;;36.17;10.25
50105;BME280;47690;39.202;-77.198;2023-01-31T11:59:05;100633.28;;;36.09;10.25
50105;BME280;47690;39.202;-77.198;2023-01-31T12:02:04;100639.16;;;36.43;9.94
50105;BME280;47690;39.202;-77.198;2023-01-31T12:04:40;100645.88;;;36.24;10.04
50105;BME280;47690;39.202;-77.198;2023-01-31T12:07:31;100652.06;;;36.25;10.11
50105;BME280;47690;39.202;-77.198;2023-01-31T12:10:33;100639.59;;;36.32;9.66
50105;BME280;47690;39.202;-77.198;2023-01-31T12:13:24;100654.53;;;36.11;9.75
50105;BME280;47690;39.202;-77.198;2023-01-31T12:16:02;100667.75;;;35.74;10.25
50105;BME280;47690;39.202;-77.198;2023-01-31T12:18:56;100686.75;;;35.88;10.05
50105;BME280;47690;39.202;-77.198;2023-01-31T12:26:55;100706.41;;;35.17;10.26
50105;BME280;47690;39.202;-77.198;2023-01-31T12:29:57;100721.69;;;35.08;10.48
50105;BME280;47690;39.202;-77.198;2023-01-31T12:38:10;100715.94;;;34.46;10.52
50105;BME280;47690;39.202;-77.198;2023-01-31T12:41:11;100736.06;;;35.07;10.00
50105;BME280;47690;39.202;-77.198;2023-01-31T12:58:48;100736.34;;;34.30;10.32
50105;BME280;47690;39.202;-77.198;2023-01-31T13:01:56;100742.53;;;34.23;10.15
50105;BME280;47690;39.202;-77.198;2023-01-31T13:07:14;100776.44;;;34.14;10.47
50105;BME280;47690;39.202;-77.198;2023-01-31T13:09:48;100780.59;;;34.25;10.62
50105;BME280;47690;39.202;-77.198;2023-01-31T13:12:24;100794.66;;;34.35;10.37
50105;BME280;47690;39.202;-77.198;2023-01-31T13:15:03;100782.13;;;34.27;10.45
50105;BME280;47690;39.202;-77.198;2023-01-31T13:17:37;100778.59;;;34.10;10.59
50105;BME280;47690;39.202;-77.198;2023-01-31T13:20:18;100774.25;;;34.09;10.38
50105;BME280;47690;39.202;-77.198;2023-01-31T13:23:16;100783.53;;;33.80;10.71
50105;BME280;47690;39.202;-77.198;2023-01-31T13:25:51;100786.84;;;33.65;10.77
50105;BME280;47690;39.202;-77.198;2023-01-31T13:28:26;100780.44;;;33.50;10.69
50105;BME280;47690;39.202;-77.198;2023-01-31T13:31:05;100787.41;;;33.43;10.84
50105;BME280;47690;39.202;-77.198;2023-01-31T13:33:51;100780.66;;;33.57;11.06
50105;BME280;47690;39.202;-77.198;2023-01-31T13:36:39;100770.72;;;33.41;10.82
50105;BME280;47690;39.202;-77.198;2023-01-31T13:39:22;100772.75;;;34.06;10.75
50105;BME280;47690;39.202;-77.198;2023-01-31T13:41:52;100774.94;;;34.19;10.79
50105;BME280;47690;39.202;-77.198;2023-01-31T13:44:22;100777.94;;;34.16;10.91
50105;BME280;47690;39.202;-77.198;2023-01-31T13:52:02;100781.44;;;34.42;10.61
50105;BME280;47690;39.202;-77.198;2023-01-31T13:54:40;100778.78;;;34.42;10.63
50105;BME280;47690;39.202;-77.198;2023-01-31T13:57:40;100783.66;;;34.63;10.37
50105;BME280;47690;39.202;-77.198;2023-01-31T14:00:41;100791.84;;;34.62;10.71
50105;BME280;47690;39.202;-77.198;2023-01-31T14:03:13;100778.59;;;34.02;10.86
50105;BME280;47690;39.202;-77.198;2023-01-31T14:08:33;100787.06;;;33.81;10.96
50105;BME280;47690;39.202;-77.198;2023-01-31T14:13:50;100776.84;;;33.68;11.32
50105;BME280;47690;39.202;-77.198;2023-01-31T14:16:42;100767.34;;;33.73;11.33
50105;BME280;47690;39.202;-77.198;2023-01-31T14:30:39;100792.16;;;34.09;10.99
50105;BME280;47690;39.202;-77.198;2023-01-31T14:41:46;100787.16;;;34.64;10.87
50105;BME280;47690;39.202;-77.198;2023-01-31T14:47:50;100805.31;;;35.01;10.61
50105;BME280;47690;39.202;-77.198;2023-01-31T14:56:53;100825.41;;;34.81;10.83
50105;BME280;47690;39.202;-77.198;2023-01-31T14:59:38;100828.75;;;34.74;10.86
50105;BME280;47690;39.202;-77.198;2023-01-31T15:07:32;100851.31;;;34.39;10.74
50105;BME280;47690;39.202;-77.198;2023-01-31T15:10:02;100863.03;;;34.38;11.00
50105;BME280;47690;39.202;-77.198;2023-01-31T15:12:54;100862.50;;;34.42;11.09
50105;BME280;47690;39.202;-77.198;2023-01-31T15:15:35;100873.22;;;34.42;10.94
50105;BME280;47690;39.202;-77.198;2023-01-31T15:18:17;100883.44;;;34.55;10.95
50105;BME280;47690;39.202;-77.198;2023-01-31T15:20:55;100887.59;;;34.50;10.99
50105;BME280;47690;39.202;-77.198;2023-01-31T15:23:29;100892.41;;;33.78;11.32
50105;BME280;47690;39.202;-77.198;2023-01-31T15:26:00;100892.41;;;34.29;11.02
50105;BME280;47690;39.202;-77.198;2023-01-31T15:28:37;100893.47;;;33.59;11.40
50105;BME280;47690;39.202;-77.198;2023-01-31T15:31:17;100876.59;;;33.58;11.33